Time;durP1;ratioP1;P1;durP2;ratioP2;P2;SDS_P1;SDS_P2;PMS_P1;PMS_P2;Temp;Humidity;BMP_temperature;BMP_pressure;BME280_temperature;BME280_humidity;BME280_pressure;Samples;Min_cycle;Max_cycle;Signal;HPM_P1;HPM_P2
2021/01/18 00:00:23;;;;;;;8.40;6.03;;;2.30;99.90;;;;;;4973036;28;20184;-69
2021/01/18 00:02:48;;;;;;;7.90;7.07;;;2.40;99.90;;;;;;4972877;28;20212;-69
2021/01/18 00:05:14;;;;;;;8.47;6.60;;;2.40;99.90;;;;;;4971674;28;20439;-69
2021/01/18 00:07:46;;;;;;;12.17;6.97;;;2.40;99.90;;;;;;4972074;28;20180;-69
2021/01/18 00:10:17;;;;;;;13.50;7.40;;;2.50;99.90;;;;;;4972240;28;20195;-69
2021/01/18 00:12:44;;;;;;;9.70;6.90;;;2.50;99.90;;;;;;4972841;28;20459;-69
2021/01/18 00:15:10;;;;;;;7.30;5.83;;;2.40;99.90;;;;;;4972429;28;20443;-69
2021/01/18 00:17:35;;;;;;;7.10;5.80;;;2.50;99.90;;;;;;4972126;28;20436;-69
2021/01/18 00:20:01;;;;;;;8.67;6.60;;;2.50;99.90;;;;;;4972175;28;20439;-69
2021/01/18 00:22:27;;;;;;;10.50;6.90;;;2.50;99.90;;;;;;4971817;28;20679;-69
2021/01/18 00:24:52;;;;;;;7.53;6.70;;;2.50;99.90;;;;;;4972412;28;20436;-69
2021/01/18 00:27:18;;;;;;;7.30;5.60;;;2.50;99.90;;;;;;4971440;28;20753;-69
2021/01/18 00:29:43;;;;;;;15.30;7.43;;;2.50;99.90;;;;;;4972607;28;20184;-69
2021/01/18 00:32:09;;;;;;;17.30;7.20;;;2.50;99.90;;;;;;4971737;28;20184;-69
2021/01/18 00:34:34;;;;;;;6.87;5.73;;;2.50;99.90;;;;;;4960026;28;20192;-69
2021/01/18 00:37:00;;;;;;;8.30;6.97;;;2.50;99.90;;;;;;4971844;28;20191;-69
2021/01/18 00:39:26;;;;;;;6.90;5.40;;;2.50;99.90;;;;;;4972064;28;20180;-69
2021/01/18 00:41:51;;;;;;;8.50;6.80;;;2.40;99.90;;;;;;4971916;28;20521;-69
2021/01/18 00:44:17;;;;;;;14.03;6.53;;;2.40;99.90;;;;;;4971865;28;20207;-68
2021/01/18 00:46:45;;;;;;;12.43;8.53;;;2.40;99.90;;;;;;4971481;28;20200;-69
2021/01/18 00:49:11;;;;;;;8.10;5.70;;;2.30;99.90;;;;;;4970661;28;20180;-69
2021/01/18 00:51:38;;;;;;;7.10;5.50;;;2.30;99.90;;;;;;4971523;28;20494;-69
2021/01/18 00:54:04;;;;;;;8.10;6.37;;;2.20;99.90;;;;;;4971033;28;20335;-69
2021/01/18 00:56:30;;;;;;;9.40;7.00;;;2.20;99.90;;;;;;4971299;28;20450;-69
2021/01/18 00:58:55;;;;;;;9.10;6.93;;;2.20;99.90;;;;;;4970830;28;20841;-69
2021/01/18 01:01:21;;;;;;;9.20;7.40;;;2.20;99.90;;;;;;4971945;28;20184;-69
2021/01/18 01:03:47;;;;;;;10.60;6.53;;;2.20;99.90;;;;;;4972381;28;20267;-69
2021/01/18 01:06:12;;;;;;;7.87;6.77;;;2.10;99.90;;;;;;4970924;28;20195;-69
2021/01/18 01:08:39;;;;;;;10.20;6.73;;;2.00;99.90;;;;;;4971565;28;20263;-69
2021/01/18 01:11:04;;;;;;;8.10;5.80;;;2.00;99.90;;;;;;4971838;28;20176;-69
2021/01/18 01:13:30;;;;;;;10.30;6.43;;;2.00;99.90;;;;;;4971411;28;20462;-69
2021/01/18 01:15:57;;;;;;;6.10;5.13;;;2.00;99.90;;;;;;4971245;28;20176;-69
2021/01/18 01:18:22;;;;;;;9.77;5.80;;;2.00;99.90;;;;;;4971814;28;20540;-69
2021/01/18 01:20:48;;;;;;;9.43;6.40;;;2.00;99.90;;;;;;4971072;28;20447;-69
2021/01/18 01:23:14;;;;;;;7.53;5.43;;;1.90;99.90;;;;;;4971231;28;20576;-69
2021/01/18 01:25:39;;;;;;;6.97;5.97;;;1.90;99.90;;;;;;4970531;28;20602;-69
2021/01/18 01:28:05;;;;;;;8.90;6.47;;;1.90;99.90;;;;;;4970995;28;20706;-69
2021/01/18 01:30:31;;;;;;;5.57;4.97;;;1.90;99.90;;;;;;4971013;28;20177;-69
2021/01/18 01:32:56;;;;;;;10.23;6.60;;;1.90;99.90;;;;;;4971209;28;20602;-69
2021/01/18 01:35:27;;;;;;;7.47;5.17;;;1.90;99.90;;;;;;4970624;28;20231;-68
2021/01/18 01:37:53;;;;;;;8.17;5.90;;;1.90;99.90;;;;;;4971233;28;20176;-69
2021/01/18 01:40:19;;;;;;;7.07;5.10;;;1.90;99.90;;;;;;4971208;28;20491;-69
2021/01/18 01:42:45;;;;;;;6.73;4.90;;;1.90;99.90;;;;;;4971200;28;20452;-69
2021/01/18 01:45:13;;;;;;;8.20;5.77;;;1.90;99.90;;;;;;4971339;28;20184;-69
2021/01/18 01:47:49;;;;;;;8.23;5.53;;;1.80;99.90;;;;;;4970118;28;20472;-69
2021/01/18 01:50:22;;;;;;;8.47;4.90;;;1.90;99.90;;;;;;4970498;28;20517;-69
2021/01/18 01:52:56;;;;;;;9.50;5.90;;;1.90;99.90;;;;;;4971383;28;20473;-69
2021/01/18 01:55:28;;;;;;;5.70;4.80;;;1.90;99.90;;;;;;4970184;28;20434;-69
2021/01/18 01:57:54;;;;;;;7.07;5.73;;;1.90;99.90;;;;;;4970830;28;21909;-69
2021/01/18 02:00:22;;;;;;;6.73;5.10;;;1.90;99.90;;;;;;4970731;28;20439;-69
2021/01/18 02:02:48;;;;;;;8.13;5.57;;;1.90;99.90;;;;;;4998359;22;20580;-66
2021/01/18 02:05:14;;;;;;;5.80;5.17;;;2.00;99.90;;;;;;4991096;28;20430;-66
2021/01/18 02:07:41;;;;;;;6.37;5.43;;;2.00;99.90;;;;;;4990769;28;20458;-66
2021/01/18 02:10:07;;;;;;;9.13;6.03;;;2.00;99.90;;;;;;5002155;28;20442;-66
2021/01/18 02:12:33;;;;;;;13.03;5.60;;;2.00;99.90;;;;;;4990535;28;20557;-66
2021/01/18 02:15:11;;;;;;;5.80;4.70;;;2.00;99.90;;;;;;4990871;28;20521;-66
2021/01/18 02:17:58;;;;;;;7.00;5.60;;;2.00;99.90;;;;;;4990569;28;20639;-66
2021/01/18 02:20:50;;;;;;;8.10;4.30;;;2.00;99.90;;;;;;4994407;28;20430;-66
2021/01/18 02:23:41;;;;;;;6.70;5.07;;;2.00;99.90;;;;;;4998324;28;20513;-66
2021/01/18 02:26:15;;;;;;;6.80;5.50;;;2.00;99.90;;;;;;4997830;28;20469;-66
2021/01/18 02:28:53;;;;;;;7.60;6.67;;;2.10;99.90;;;;;;4990365;28;20528;-66
2021/01/18 02:31:38;;;;;;;8.63;5.23;;;2.10;99.90;;;;;;4990852;28;20422;-66
2021/01/18 02:34:45;;;;;;;7.90;6.23;;;2.10;99.90;;;;;;4991399;28;20995;-66
2021/01/18 02:37:40;;;;;;;8.37;5.60;;;2.10;99.90;;;;;;4989580;28;20434;-67
2021/01/18 02:40:23;;;;;;;9.00;5.97;;;2.10;99.90;;;;;;5002477;28;20434;-66
2021/01/18 02:42:58;;;;;;;6.00;5.20;;;2.20;99.90;;;;;;4991241;28;20473;-66
2021/01/18 02:45:25;;;;;;;7.93;5.83;;;2.20;99.90;;;;;;5001223;28;20436;-66
2021/01/18 02:47:51;;;;;;;7.80;5.60;;;2.30;99.90;;;;;;4994017;28;20449;-66
2021/01/18 02:50:19;;;;;;;7.27;5.60;;;2.30;99.90;;;;;;4998202;28;20430;-66
2021/01/18 02:52:45;;;;;;;7.43;6.30;;;2.30;99.90;;;;;;5003256;28;20765;-66
2021/01/18 02:55:12;;;;;;;9.50;6.97;;;2.30;99.90;;;;;;4997577;28;20529;-66
2021/01/18 02:57:40;;;;;;;10.53;8.03;;;2.30;99.90;;;;;;4993954;28;20222;-66
2021/01/18 03:00:11;;;;;;;8.10;6.30;;;2.30;99.90;;;;;;4987419;28;20431;-66
2021/01/18 03:02:55;;;;;;;6.97;5.37;;;2.30;99.90;;;;;;5008764;28;20461;-66
2021/01/18 03:05:35;;;;;;;9.83;6.17;;;2.20;99.90;;;;;;4993234;28;20445;-66
2021/01/18 03:08:23;;;;;;;8.40;6.70;;;2.20;99.90;;;;;;5004516;28;20511;-66
2021/01/18 03:11:03;;;;;;;7.93;6.83;;;2.20;99.90;;;;;;4996802;28;20529;-66
2021/01/18 03:13:32;;;;;;;9.67;7.67;;;2.30;99.90;;;;;;4986850;28;20462;-66
2021/01/18 03:16:08;;;;;;;9.30;7.10;;;2.30;99.90;;;;;;4993474;28;20435;-66
2021/01/18 03:18:34;;;;;;;11.73;6.57;;;2.30;99.90;;;;;;4994902;28;20538;-66
2021/01/18 03:21:01;;;;;;;11.63;7.33;;;2.30;99.90;;;;;;5001298;28;20933;-66
2021/01/18 03:23:26;;;;;;;12.73;7.57;;;2.40;99.90;;;;;;5000356;28;20470;-66
2021/01/18 03:25:54;;;;;;;8.57;6.90;;;2.40;99.90;;;;;;4994014;28;20467;-66
2021/01/18 03:28:21;;;;;;;8.13;7.07;;;2.40;99.90;;;;;;4993355;28;20686;-67
2021/01/18 03:30:47;;;;;;;9.70;6.93;;;2.40;99.90;;;;;;4993977;28;20819;-66
2021/01/18 03:33:14;;;;;;;11.93;7.10;;;2.40;99.90;;;;;;4993286;28;20465;-67
2021/01/18 03:35:40;;;;;;;9.07;7.20;;;2.40;99.90;;;;;;4992409;28;20266;-66
2021/01/18 03:38:06;;;;;;;11.20;7.53;;;2.40;99.90;;;;;;4996382;28;20501;-66
2021/01/18 03:40:32;;;;;;;9.57;8.03;;;2.40;99.90;;;;;;4992976;28;20464;-66
2021/01/18 03:43:00;;;;;;;13.10;7.37;;;2.40;99.90;;;;;;4992645;28;20205;-66
2021/01/18 03:45:28;;;;;;;13.10;8.90;;;2.40;99.90;;;;;;4992870;28;20928;-66
2021/01/18 03:47:54;;;;;;;14.87;8.27;;;2.30;99.90;;;;;;5002759;28;20452;-66
2021/01/18 03:50:20;;;;;;;10.53;7.33;;;2.30;99.90;;;;;;5000229;28;22418;-66
2021/01/18 03:52:50;;;;;;;12.03;7.80;;;2.30;99.90;;;;;;4997132;28;20694;-66
2021/01/18 03:55:16;;;;;;;11.17;7.87;;;2.30;99.90;;;;;;5003525;28;20435;-66
2021/01/18 03:57:44;;;;;;;12.70;8.23;;;2.30;99.90;;;;;;4992982;28;20478;-66
2021/01/18 04:00:10;;;;;;;14.63;8.20;;;2.20;99.90;;;;;;4992391;28;20447;-66
2021/01/18 04:02:37;;;;;;;11.80;8.60;;;2.20;99.90;;;;;;5001705;28;20462;-66
2021/01/18 04:05:02;;;;;;;10.90;7.90;;;2.20;99.90;;;;;;4992612;28;20427;-66
2021/01/18 04:07:28;;;;;;;13.17;8.33;;;2.20;99.90;;;;;;5000170;28;20473;-66
2021/01/18 04:09:54;;;;;;;11.43;8.10;;;2.10;99.90;;;;;;4991951;28;20188;-66
2021/01/18 04:12:19;;;;;;;12.33;8.87;;;2.10;99.90;;;;;;4996782;28;20211;-66
2021/01/18 04:14:45;;;;;;;15.10;9.00;;;2.10;99.90;;;;;;5001426;28;20167;-66
2021/01/18 04:17:11;;;;;;;16.40;10.03;;;2.10;99.90;;;;;;4992609;28;20190;-66
2021/01/18 04:19:37;;;;;;;14.60;9.50;;;2.10;99.90;;;;;;4992567;28;20984;-66
2021/01/18 04:22:06;;;;;;;11.00;8.10;;;2.00;99.90;;;;;;4992484;28;20175;-66
2021/01/18 04:24:32;;;;;;;17.90;9.70;;;2.00;99.90;;;;;;4998027;28;20283;-66
2021/01/18 04:26:58;;;;;;;13.03;9.90;;;1.90;99.90;;;;;;4991374;28;21056;-67
2021/01/18 04:29:23;;;;;;;15.20;9.37;;;1.90;99.90;;;;;;4995710;28;20529;-66
2021/01/18 04:31:49;;;;;;;15.93;8.80;;;1.80;99.90;;;;;;4993437;28;20179;-66
2021/01/18 04:34:14;;;;;;;12.80;8.90;;;1.80;99.90;;;;;;4991967;28;20207;-66
2021/01/18 04:36:40;;;;;;;14.47;10.10;;;1.80;99.90;;;;;;4995568;28;20180;-66
2021/01/18 04:39:07;;;;;;;11.43;8.47;;;1.70;99.90;;;;;;4996260;28;20172;-66
2021/01/18 04:41:36;;;;;;;15.07;9.60;;;1.70;99.90;;;;;;5004076;28;20194;-67
2021/01/18 04:44:03;;;;;;;15.33;9.90;;;1.70;99.90;;;;;;5003886;28;20553;-66
2021/01/18 04:46:30;;;;;;;14.93;8.90;;;1.60;99.90;;;;;;4998144;28;20463;-66
2021/01/18 04:48:59;;;;;;;17.90;9.57;;;1.70;99.90;;;;;;4992068;28;20979;-66
2021/01/18 04:51:26;;;;;;;12.37;9.77;;;1.70;99.90;;;;;;4993715;28;20427;-66
2021/01/18 04:53:56;;;;;;;19.83;11.50;;;1.70;99.90;;;;;;4991707;28;21809;-66
2021/01/18 04:56:53;;;;;;;15.00;9.80;;;1.60;99.90;;;;;;4991501;28;20439;-66
2021/01/18 04:59:21;;;;;;;22.97;10.97;;;1.60;99.90;;;;;;4987172;28;20426;-66
2021/01/18 05:01:51;;;;;;;18.00;11.60;;;1.60;99.90;;;;;;5004996;28;20430;-66
2021/01/18 05:04:29;;;;;;;15.37;8.80;;;1.60;99.90;;;;;;4992377;28;20462;-66
2021/01/18 05:06:59;;;;;;;17.50;10.60;;;1.50;99.90;;;;;;5008702;28;21004;-66
2021/01/18 05:09:28;;;;;;;13.43;9.10;;;1.50;99.90;;;;;;4993875;28;20521;-66
2021/01/18 05:11:55;;;;;;;16.33;10.77;;;1.50;99.90;;;;;;5001445;28;20501;-66
2021/01/18 05:14:21;;;;;;;12.57;8.53;;;1.50;99.90;;;;;;4991056;28;20478;-66
2021/01/18 05:16:52;;;;;;;13.70;8.90;;;1.40;99.90;;;;;;4996774;28;20949;-66
2021/01/18 05:19:19;;;;;;;11.80;8.47;;;1.40;99.90;;;;;;4991166;28;20608;-66
2021/01/18 05:21:46;;;;;;;12.47;9.20;;;1.40;99.90;;;;;;4991471;28;20832;-66
2021/01/18 05:24:12;;;;;;;13.53;7.93;;;1.30;99.90;;;;;;4973463;28;20910;-66
2021/01/18 05:26:39;;;;;;;11.63;8.63;;;1.30;99.90;;;;;;4990344;28;20509;-67
2021/01/18 05:29:05;;;;;;;11.77;8.97;;;1.30;99.90;;;;;;4991381;28;20504;-66
2021/01/18 05:31:36;;;;;;;9.70;7.60;;;1.30;99.90;;;;;;5001088;28;20468;-66
2021/01/18 05:34:04;;;;;;;10.83;7.60;;;1.30;99.90;;;;;;4995136;28;20457;-66
2021/01/18 05:36:44;;;;;;;13.17;8.43;;;1.30;99.90;;;;;;4999153;28;20480;-66
2021/01/18 05:39:16;;;;;;;14.30;8.03;;;1.30;99.90;;;;;;4988608;28;20481;-67
2021/01/18 05:41:43;;;;;;;14.80;8.27;;;1.30;99.90;;;;;;5000230;28;20491;-66
2021/01/18 05:44:09;;;;;;;8.23;7.30;;;1.30;99.90;;;;;;4991012;28;20466;-66
2021/01/18 05:46:44;;;;;;;13.20;7.33;;;1.20;99.90;;;;;;4990959;28;20999;-66
2021/01/18 05:49:15;;;;;;;11.30;8.00;;;1.20;99.90;;;;;;4992170;28;20444;-66
2021/01/18 05:51:41;;;;;;;12.73;7.87;;;1.20;99.90;;;;;;4988863;28;20426;-66
2021/01/18 05:54:11;;;;;;;13.07;8.33;;;1.20;99.90;;;;;;4990628;28;20549;-66
2021/01/18 05:56:40;;;;;;;11.13;8.23;;;1.20;99.90;;;;;;4992726;28;20431;-66
2021/01/18 05:59:20;;;;;;;12.57;7.87;;;1.20;99.90;;;;;;4990622;28;20451;-66
2021/01/18 06:01:47;;;;;;;10.83;7.43;;;1.20;99.90;;;;;;4984160;28;20434;-66
2021/01/18 06:04:18;;;;;;;16.40;7.97;;;1.20;99.90;;;;;;4990337;28;20478;-66
2021/01/18 06:06:55;;;;;;;11.87;8.00;;;1.20;99.90;;;;;;4989983;28;20469;-66
2021/01/18 06:09:22;;;;;;;13.07;7.47;;;1.30;99.90;;;;;;4988890;28;20500;-66
2021/01/18 06:11:48;;;;;;;12.60;9.17;;;1.30;99.90;;;;;;4990772;28;20438;-66
2021/01/18 06:14:17;;;;;;;14.50;8.97;;;1.40;99.90;;;;;;4990685;28;20458;-66
2021/01/18 06:16:45;;;;;;;13.40;8.60;;;1.40;99.90;;;;;;4989711;28;20180;-66
2021/01/18 06:19:19;;;;;;;17.00;8.33;;;1.50;99.90;;;;;;4992950;28;20439;-66
2021/01/18 06:21:45;;;;;;;11.80;8.00;;;1.50;99.90;;;;;;4990399;28;20442;-66
2021/01/18 06:24:27;;;;;;;10.43;9.33;;;1.50;99.90;;;;;;4994282;28;20842;-66
2021/01/18 06:26:53;;;;;;;13.03;8.20;;;1.50;99.90;;;;;;4993544;28;20234;-66
2021/01/18 06:29:42;;;;;;;12.03;9.60;;;1.40;99.90;;;;;;4994620;28;20521;-66
2021/01/18 06:32:12;;;;;;;12.20;8.40;;;1.30;99.90;;;;;;4994991;28;20525;-66
2021/01/18 06:34:38;;;;;;;12.00;8.37;;;1.30;99.90;;;;;;4980624;28;20462;-68
2021/01/18 06:37:04;;;;;;;14.77;8.60;;;1.30;99.90;;;;;;4994705;28;20518;-66
2021/01/18 06:39:31;;;;;;;17.93;9.67;;;1.30;99.90;;;;;;4994410;28;20199;-66
2021/01/18 06:42:02;;;;;;;13.87;8.97;;;1.20;99.90;;;;;;5007338;28;20229;-66
2021/01/18 06:44:54;;;;;;;14.73;9.87;;;1.20;99.90;;;;;;4994109;28;20465;-66
2021/01/18 06:47:30;;;;;;;12.20;8.73;;;1.20;99.90;;;;;;4991612;28;20482;-66
2021/01/18 06:49:58;;;;;;;10.60;8.57;;;1.30;99.90;;;;;;5007630;28;20473;-66
2021/01/18 06:52:26;;;;;;;12.17;8.10;;;1.30;99.90;;;;;;4994114;28;20438;-66
2021/01/18 06:55:02;;;;;;;14.87;10.17;;;1.30;99.90;;;;;;4994267;28;20442;-66
2021/01/18 06:57:50;;;;;;;15.50;8.50;;;1.30;99.90;;;;;;4993451;28;20438;-66
2021/01/18 07:00:17;;;;;;;16.23;9.90;;;1.30;99.90;;;;;;4995561;28;20439;-66
2021/01/18 07:02:58;;;;;;;12.93;8.70;;;1.40;99.90;;;;;;4997142;28;20561;-66
2021/01/18 07:05:32;;;;;;;23.90;13.63;;;1.30;99.90;;;;;;4991715;28;20449;-66
2021/01/18 07:08:13;;;;;;;13.90;8.53;;;1.30;99.90;;;;;;5000389;28;21006;-66
2021/01/18 07:10:47;;;;;;;11.40;6.33;;;1.30;99.90;;;;;;4994068;28;20477;-66
2021/01/18 07:13:13;;;;;;;8.50;6.43;;;1.40;99.90;;;;;;4994924;28;20462;-66
2021/01/18 07:15:41;;;;;;;10.77;7.40;;;1.40;99.90;;;;;;4993658;28;20434;-66
2021/01/18 07:18:11;;;;;;;15.23;8.40;;;1.40;99.90;;;;;;4993620;28;20443;-66
2021/01/18 07:20:41;;;;;;;12.77;6.60;;;1.50;99.90;;;;;;4993307;28;20447;-66
2021/01/18 07:23:15;;;;;;;9.93;7.30;;;1.50;99.90;;;;;;4993297;28;20451;-65
2021/01/18 07:25:45;;;;;;;8.57;6.40;;;1.60;99.90;;;;;;4992631;28;20474;-65
2021/01/18 07:28:18;;;;;;;8.13;6.30;;;1.60;99.90;;;;;;4993093;28;20485;-64
2021/01/18 07:30:45;;;;;;;13.83;6.90;;;1.70;99.90;;;;;;4992811;28;20522;-65
2021/01/18 07:33:13;;;;;;;13.83;6.33;;;1.80;99.90;;;;;;4996342;28;20830;-65
2021/01/18 07:35:41;;;;;;;8.60;5.50;;;1.90;99.90;;;;;;4992354;28;20469;-65
2021/01/18 07:38:10;;;;;;;8.60;5.70;;;1.90;99.90;;;;;;4994101;28;20715;-65
2021/01/18 07:40:36;;;;;;;8.90;6.10;;;2.00;99.90;;;;;;5003140;28;20435;-65
2021/01/18 07:43:01;;;;;;;7.20;5.70;;;2.00;99.90;;;;;;4994384;28;20544;-64
2021/01/18 07:45:27;;;;;;;11.30;6.07;;;2.00;99.90;;;;;;4969854;28;20191;-65
2021/01/18 07:47:55;;;;;;;8.23;5.00;;;2.10;99.90;;;;;;4983864;28;20223;-65
2021/01/18 07:50:38;;;;;;;10.27;7.07;;;2.10;99.90;;;;;;4978341;28;20267;-65
2021/01/18 07:53:09;;;;;;;12.73;5.93;;;2.20;99.90;;;;;;4989500;28;20466;-65
2021/01/18 07:55:38;;;;;;;9.23;4.80;;;2.30;99.90;;;;;;4984900;28;20985;-65
2021/01/18 07:58:16;;;;;;;8.20;6.10;;;2.30;99.90;;;;;;4992460;28;20436;-65
2021/01/18 08:00:43;;;;;;;6.93;5.20;;;2.20;99.90;;;;;;4993072;28;20442;-65
2021/01/18 08:03:12;;;;;;;8.77;5.70;;;2.30;99.90;;;;;;4990874;28;20493;-65
2021/01/18 08:05:39;;;;;;;6.37;4.60;;;2.30;99.90;;;;;;4991696;28;20446;-65
2021/01/18 08:08:07;;;;;;;6.80;4.57;;;2.30;99.90;;;;;;4995331;28;20442;-65
2021/01/18 08:10:53;;;;;;;7.77;5.20;;;2.30;99.90;;;;;;4991742;28;20446;-65
2021/01/18 08:13:30;;;;;;;8.27;5.10;;;2.30;99.90;;;;;;4987038;28;20458;-65
2021/01/18 08:15:58;;;;;;;7.53;5.20;;;2.30;99.90;;;;;;4989440;28;20446;-65
2021/01/18 08:18:29;;;;;;;7.33;5.43;;;2.30;99.90;;;;;;4994516;28;20532;-65
2021/01/18 08:20:55;;;;;;;6.60;5.50;;;2.40;99.90;;;;;;4995744;28;20435;-65
2021/01/18 08:23:42;;;;;;;6.67;5.40;;;2.50;99.90;;;;;;5005781;28;20465;-65
2021/01/18 08:26:10;;;;;;;13.43;6.67;;;2.50;99.90;;;;;;4982359;28;20211;-65
2021/01/18 08:28:36;;;;;;;9.43;5.40;;;2.60;99.90;;;;;;4989351;28;20434;-65
2021/01/18 08:31:02;;;;;;;15.10;9.63;;;2.60;99.90;;;;;;4989382;28;20489;-66
2021/01/18 08:33:29;;;;;;;5.73;4.87;;;2.70;99.90;;;;;;4996426;28;20450;-65
2021/01/18 08:35:57;;;;;;;6.97;5.27;;;2.70;99.90;;;;;;4988760;28;20445;-65
2021/01/18 08:38:28;;;;;;;8.83;4.80;;;2.80;99.90;;;;;;4992219;28;20441;-66
2021/01/18 08:41:08;;;;;;;11.40;4.60;;;2.80;99.90;;;;;;5008980;28;20425;-65
2021/01/18 08:43:44;;;;;;;5.43;4.60;;;2.80;99.90;;;;;;4997176;28;20913;-65
2021/01/18 08:46:36;;;;;;;5.63;5.13;;;2.90;99.90;;;;;;4991850;28;20489;-66
2021/01/18 08:49:28;;;;;;;8.30;5.00;;;2.90;99.90;;;;;;4992454;28;20952;-65
2021/01/18 08:51:56;;;;;;;8.37;4.90;;;3.00;99.90;;;;;;4987370;28;20442;-66
2021/01/18 08:54:37;;;;;;;6.97;5.70;;;3.10;99.90;;;;;;5005095;28;20454;-65
2021/01/18 08:57:19;;;;;;;7.17;6.37;;;3.20;99.90;;;;;;4988033;28;20445;-66
2021/01/18 08:59:46;;;;;;;6.77;5.20;;;3.30;99.90;;;;;;4988723;28;20529;-66
2021/01/18 09:02:17;;;;;;;11.03;5.67;;;3.20;99.90;;;;;;4995512;28;20438;-66
2021/01/18 09:04:42;;;;;;;7.70;5.77;;;3.30;99.90;;;;;;4985129;28;20454;-65
2021/01/18 09:07:11;;;;;;;7.10;5.63;;;3.30;99.90;;;;;;4988031;28;20914;-66
2021/01/18 09:09:40;;;;;;;8.20;5.67;;;3.30;99.90;;;;;;4990923;28;20249;-66
2021/01/18 09:12:09;;;;;;;11.67;6.77;;;3.30;99.90;;;;;;4996091;28;20439;-66
2021/01/18 09:14:35;;;;;;;7.10;5.80;;;3.30;99.90;;;;;;4988676;28;20553;-66
2021/01/18 09:17:10;;;;;;;9.00;7.27;;;3.30;99.90;;;;;;4988234;28;20434;-66
2021/01/18 09:19:52;;;;;;;10.50;6.53;;;3.40;99.90;;;;;;4987761;28;20815;-65
2021/01/18 09:22:20;;;;;;;7.97;6.10;;;3.40;99.90;;;;;;4990860;28;20457;-65
2021/01/18 09:24:49;;;;;;;7.13;5.67;;;3.40;99.90;;;;;;4988401;28;20481;-66
2021/01/18 09:27:18;;;;;;;8.43;6.23;;;3.40;99.90;;;;;;4987491;28;20973;-66
2021/01/18 09:29:57;;;;;;;8.07;5.40;;;3.30;99.90;;;;;;4991143;28;20485;-65
2021/01/18 09:32:23;;;;;;;9.03;6.37;;;3.40;99.90;;;;;;4983902;28;20434;-65
2021/01/18 09:35:09;;;;;;;6.83;6.10;;;3.50;99.90;;;;;;4989566;28;20438;-66
2021/01/18 09:37:38;;;;;;;6.17;4.77;;;3.60;99.90;;;;;;4980250;28;20179;-65
2021/01/18 09:40:07;;;;;;;9.23;5.40;;;3.80;99.90;;;;;;4988452;28;20438;-66
2021/01/18 09:42:34;;;;;;;7.00;5.30;;;3.90;99.90;;;;;;4987001;28;20442;-66
2021/01/18 09:45:00;;;;;;;8.50;5.10;;;4.00;99.90;;;;;;4987642;28;20446;-65
2021/01/18 09:47:30;;;;;;;8.27;5.60;;;3.90;99.90;;;;;;4987829;28;20478;-65
2021/01/18 09:50:21;;;;;;;7.93;5.30;;;3.90;99.90;;;;;;4998133;28;20453;-66
2021/01/18 09:52:52;;;;;;;15.27;5.50;;;4.00;99.90;;;;;;4988287;28;20454;-65
2021/01/18 09:55:48;;;;;;;8.30;6.83;;;4.00;99.90;;;;;;4989387;28;20469;-65
2021/01/18 09:58:19;;;;;;;11.53;6.10;;;3.80;99.90;;;;;;4979295;28;20445;-65
2021/01/18 10:00:47;;;;;;;5.90;5.10;;;3.70;99.90;;;;;;4982560;28;20430;-65
2021/01/18 10:03:25;;;;;;;5.50;3.87;;;3.70;99.90;;;;;;4982937;28;20891;-66
2021/01/18 10:05:51;;;;;;;5.40;4.47;;;3.70;99.90;;;;;;4987709;28;20996;-65
2021/01/18 10:08:21;;;;;;;5.50;4.57;;;3.70;99.90;;;;;;4988730;28;20813;-65
2021/01/18 10:10:49;;;;;;;6.07;4.13;;;3.90;99.90;;;;;;4987045;28;21012;-66
2021/01/18 10:13:23;;;;;;;4.93;3.60;;;4.10;99.90;;;;;;4975534;28;20450;-66
2021/01/18 10:15:49;;;;;;;7.17;4.50;;;4.40;99.90;;;;;;4988422;28;20438;-66
2021/01/18 10:18:27;;;;;;;7.07;4.20;;;4.60;99.90;;;;;;4995039;28;20457;-66
2021/01/18 10:20:56;;;;;;;5.40;4.00;;;4.80;99.90;;;;;;4988384;28;20486;-66
2021/01/18 10:23:22;;;;;;;6.03;4.90;;;4.70;99.90;;;;;;4989387;28;20457;-66
2021/01/18 10:25:47;;;;;;;5.67;4.60;;;4.50;99.90;;;;;;4986014;28;20472;-66
2021/01/18 10:28:20;;;;;;;6.50;4.70;;;4.30;99.90;;;;;;4987681;28;20449;-66
2021/01/18 10:30:46;;;;;;;7.23;5.67;;;4.30;99.90;;;;;;4987624;28;20182;-66
2021/01/18 10:33:18;;;;;;;4.80;4.00;;;4.30;99.90;;;;;;4987292;28;20928;-65
2021/01/18 10:35:46;;;;;;;5.33;4.73;;;4.30;99.90;;;;;;4986439;28;20446;-65
2021/01/18 10:38:24;;;;;;;5.80;4.33;;;4.40;99.90;;;;;;4987741;28;21013;-66
2021/01/18 10:41:06;;;;;;;5.50;3.93;;;4.60;99.90;;;;;;4986827;28;20434;-65
2021/01/18 10:43:32;;;;;;;5.93;4.60;;;4.70;99.90;;;;;;5000137;28;20546;-67
2021/01/18 10:45:58;;;;;;;4.23;3.83;;;5.00;99.90;;;;;;4993508;28;20533;-65
2021/01/18 10:48:32;;;;;;;4.20;3.50;;;5.50;99.90;;;;;;4992608;28;20670;-65
2021/01/18 10:51:03;;;;;;;4.70;3.73;;;6.20;99.90;;;;;;4989099;28;20796;-66
2021/01/18 10:53:33;;;;;;;4.10;3.70;;;5.90;99.90;;;;;;4993255;28;20572;-68
2021/01/18 10:56:15;;;;;;;4.80;3.70;;;5.90;99.90;;;;;;4996855;28;20556;-65
2021/01/18 10:58:42;;;;;;;5.43;4.30;;;6.20;99.90;;;;;;4987424;28;20438;-66
2021/01/18 11:01:09;;;;;;;13.27;4.80;;;6.50;99.90;;;;;;4987039;28;20536;-65
2021/01/18 11:03:36;;;;;;;5.53;4.50;;;6.50;99.90;;;;;;4986661;28;20573;-65
2021/01/18 11:06:10;;;;;;;9.23;6.03;;;6.20;99.90;;;;;;4991350;28;20552;-66
2021/01/18 11:08:35;;;;;;;7.27;6.40;;;6.30;99.90;;;;;;5001961;28;20443;-65
2021/01/18 11:11:04;;;;;;;8.50;4.90;;;6.20;99.90;;;;;;5009798;28;20437;-66
2021/01/18 11:13:30;;;;;;;5.93;5.00;;;5.60;99.90;;;;;;4994482;28;20200;-65
2021/01/18 11:15:55;;;;;;;6.63;5.53;;;5.50;99.90;;;;;;4988676;28;20431;-65
2021/01/18 11:18:21;;;;;;;5.77;4.67;;;5.20;99.90;;;;;;4990669;28;20187;-66
2021/01/18 11:20:52;;;;;;;7.20;5.07;;;5.00;99.90;;;;;;4996190;28;20211;-66
2021/01/18 11:23:17;;;;;;;4.50;4.10;;;4.80;99.90;;;;;;4991452;28;20545;-66
2021/01/18 11:25:43;;;;;;;5.43;4.20;;;4.60;99.90;;;;;;4989775;28;20529;-66
2021/01/18 11:28:14;;;;;;;5.60;4.57;;;4.70;99.90;;;;;;4994411;28;20179;-64
2021/01/18 11:30:40;;;;;;;8.23;4.77;;;4.90;99.90;;;;;;4990508;28;20190;-65
2021/01/18 11:33:09;;;;;;;8.30;5.77;;;5.10;99.90;;;;;;4989693;28;20545;-65
2021/01/18 11:35:35;;;;;;;7.90;4.93;;;5.20;99.90;;;;;;4989416;28;20440;-64
2021/01/18 11:38:00;;;;;;;5.27;4.50;;;5.40;99.90;;;;;;4989746;28;21005;-65
2021/01/18 11:40:26;;;;;;;7.57;5.33;;;5.40;99.90;;;;;;4988301;28;20364;-64
2021/01/18 11:42:51;;;;;;;6.10;5.50;;;5.30;99.90;;;;;;4989358;28;20207;-65
2021/01/18 11:45:17;;;;;;;6.10;5.30;;;5.20;99.90;;;;;;4988787;28;20215;-65
2021/01/18 11:47:43;;;;;;;10.33;6.40;;;5.20;99.90;;;;;;4990144;28;20192;-66
2021/01/18 11:50:10;;;;;;;6.43;5.03;;;5.30;99.90;;;;;;4999146;28;20441;-66
2021/01/18 11:52:44;;;;;;;6.87;5.30;;;5.40;99.90;;;;;;4998780;28;20206;-63
2021/01/18 11:55:11;;;;;;;5.80;5.30;;;5.60;99.90;;;;;;4990662;28;20493;-65
2021/01/18 11:57:43;;;;;;;6.37;5.10;;;5.50;99.90;;;;;;4990149;28;20438;-65
2021/01/18 12:00:11;;;;;;;6.33;4.90;;;5.50;99.90;;;;;;4990247;28;20469;-64
2021/01/18 12:02:37;;;;;;;5.23;4.70;;;5.90;99.90;;;;;;4989478;28;20466;-66
2021/01/18 12:05:04;;;;;;;7.60;5.93;;;6.10;99.90;;;;;;4991700;28;20446;-66
2021/01/18 12:07:29;;;;;;;7.23;5.07;;;6.30;99.90;;;;;;4999528;28;20207;-66
2021/01/18 12:09:55;;;;;;;8.20;6.00;;;6.20;99.90;;;;;;4999578;28;20434;-67
2021/01/18 12:12:20;;;;;;;8.80;5.90;;;6.10;99.90;;;;;;4987205;28;20179;-66
2021/01/18 12:14:46;;;;;;;9.50;5.10;;;6.00;99.90;;;;;;4993480;28;20623;-66
2021/01/18 12:17:12;;;;;;;5.80;5.00;;;5.90;99.90;;;;;;4988815;28;20262;-67
2021/01/18 12:19:37;;;;;;;5.80;4.90;;;6.00;99.90;;;;;;4997113;28;20195;-67
2021/01/18 12:22:03;;;;;;;6.63;4.57;;;5.90;99.90;;;;;;4990714;28;20954;-66
2021/01/18 12:24:29;;;;;;;7.80;4.37;;;6.00;99.90;;;;;;4990224;28;20325;-67
2021/01/18 12:26:54;;;;;;;10.20;4.47;;;5.90;99.90;;;;;;4987249;28;20627;-66
2021/01/18 12:29:20;;;;;;;5.90;5.00;;;5.90;99.90;;;;;;4989343;28;20179;-66
2021/01/18 12:31:47;;;;;;;6.27;5.40;;;6.20;99.90;;;;;;5000566;28;20588;-66
2021/01/18 12:34:13;;;;;;;7.30;5.97;;;6.40;99.90;;;;;;4991516;28;20819;-66
2021/01/18 12:36:39;;;;;;;5.97;4.27;;;6.40;99.90;;;;;;5002111;28;20503;-67
2021/01/18 12:39:09;;;;;;;5.10;4.70;;;6.10;99.90;;;;;;4991861;28;20530;-66
2021/01/18 12:41:38;;;;;;;7.83;5.57;;;5.90;99.90;;;;;;4990002;28;20462;-67
2021/01/18 12:44:06;;;;;;;5.47;4.37;;;5.70;99.90;;;;;;4989934;28;20469;-67
2021/01/18 12:46:32;;;;;;;9.37;6.20;;;5.60;99.90;;;;;;4988369;28;20469;-67
2021/01/18 12:48:57;;;;;;;8.13;5.53;;;5.60;99.90;;;;;;4988994;28;20949;-67
2021/01/18 12:51:23;;;;;;;4.30;3.90;;;5.70;99.90;;;;;;4988842;28;20435;-67
2021/01/18 12:53:49;;;;;;;9.73;4.77;;;5.70;99.90;;;;;;4989240;28;20706;-67
2021/01/18 12:56:21;;;;;;;5.00;4.47;;;5.50;99.90;;;;;;4991484;28;20198;-66
2021/01/18 12:58:47;;;;;;;5.90;4.40;;;5.60;99.90;;;;;;4988435;28;20171;-67
2021/01/18 13:01:13;;;;;;;5.00;4.10;;;5.50;99.90;;;;;;4988358;28;20962;-67
2021/01/18 13:03:38;;;;;;;5.73;3.60;;;5.60;99.90;;;;;;4992077;28;20223;-68
2021/01/18 13:06:04;;;;;;;4.83;3.33;;;5.60;99.90;;;;;;4988099;28;20828;-67